sensor_id;sensor_type;location;lat;lon;timestamp;P1;durP1;ratioP1;P2;durP2;ratioP2
75928;SDS011;64606;44.062;2.986;2023-03-04T00:00:11;38.97;;;17.85;;
75928;SDS011;64606;44.062;2.986;2023-03-04T00:02:37;37.88;;;18.52;;
75928;SDS011;64606;44.062;2.986;2023-03-04T00:05:04;37.90;;;18.67;;
75928;SDS011;64606;44.062;2.986;2023-03-04T00:07:30;36.72;;;18.88;;
75928;SDS011;64606;44.062;2.986;2023-03-04T00:09:56;38.67;;;19.65;;
75928;SDS011;64606;44.062;2.986;2023-03-04T00:12:22;58.22;;;27.10;;
75928;SDS011;64606;44.062;2.986;2023-03-04T00:14:48;36.25;;;17.95;;
75928;SDS011;64606;44.062;2.986;2023-03-04T00:17:14;33.92;;;17.27;;
75928;SDS011;64606;44.062;2.986;2023-03-04T00:19:41;37.30;;;18.60;;
75928;SDS011;64606;44.062;2.986;2023-03-04T00:22:07;41.40;;;17.33;;
75928;SDS011;64606;44.062;2.986;2023-03-04T00:24:33;36.83;;;17.25;;
75928;SDS011;64606;44.062;2.986;2023-03-04T00:26:59;39.65;;;18.00;;
75928;SDS011;64606;44.062;2.986;2023-03-04T00:29:25;36.33;;;18.38;;
75928;SDS011;64606;44.062;2.986;2023-03-04T00:31:51;39.13;;;18.75;;
75928;SDS011;64606;44.062;2.986;2023-03-04T00:34:18;34.65;;;17.58;;
75928;SDS011;64606;44.062;2.986;2023-03-04T00:36:44;36.80;;;17.55;;
75928;SDS011;64606;44.062;2.986;2023-03-04T00:39:11;35.75;;;17.42;;
75928;SDS011;64606;44.062;2.986;2023-03-04T00:41:37;37.08;;;17.30;;
75928;SDS011;64606;44.062;2.986;2023-03-04T00:44:03;38.05;;;18.65;;
75928;SDS011;64606;44.062;2.986;2023-03-04T00:46:30;37.42;;;17.77;;
75928;SDS011;64606;44.062;2.986;2023-03-04T00:48:56;40.70;;;19.27;;
75928;SDS011;64606;44.062;2.986;2023-03-04T00:51:22;40.42;;;17.95;;
75928;SDS011;64606;44.062;2.986;2023-03-04T00:53:48;38.38;;;18.30;;
75928;SDS011;64606;44.062;2.986;2023-03-04T00:56:16;38.30;;;18.80;;
75928;SDS011;64606;44.062;2.986;2023-03-04T00:58:42;35.13;;;17.10;;
75928;SDS011;64606;44.062;2.986;2023-03-04T01:01:08;39.53;;;18.45;;
75928;SDS011;64606;44.062;2.986;2023-03-04T01:03:34;38.10;;;19.25;;
75928;SDS011;64606;44.062;2.986;2023-03-04T01:06:01;39.33;;;18.83;;
75928;SDS011;64606;44.062;2.986;2023-03-04T01:08:27;35.75;;;18.30;;
75928;SDS011;64606;44.062;2.986;2023-03-04T01:10:53;41.58;;;20.23;;
75928;SDS011;64606;44.062;2.986;2023-03-04T01:13:19;48.45;;;22.55;;
75928;SDS011;64606;44.062;2.986;2023-03-04T01:15:45;43.13;;;19.50;;
75928;SDS011;64606;44.062;2.986;2023-03-04T01:18:11;63.40;;;28.58;;
75928;SDS011;64606;44.062;2.986;2023-03-04T01:20:38;44.28;;;20.70;;
75928;SDS011;64606;44.062;2.986;2023-03-04T01:23:04;41.85;;;20.08;;
75928;SDS011;64606;44.062;2.986;2023-03-04T01:25:30;59.88;;;26.20;;
75928;SDS011;64606;44.062;2.986;2023-03-04T01:27:56;45.20;;;20.02;;
75928;SDS011;64606;44.062;2.986;2023-03-04T01:30:22;42.58;;;19.48;;
75928;SDS011;64606;44.062;2.986;2023-03-04T01:32:48;40.22;;;19.30;;
75928;SDS011;64606;44.062;2.986;2023-03-04T01:35:14;39.83;;;19.02;;
75928;SDS011;64606;44.062;2.986;2023-03-04T01:37:40;40.10;;;19.20;;
75928;SDS011;64606;44.062;2.986;2023-03-04T01:40:07;39.58;;;20.23;;
75928;SDS011;64606;44.062;2.986;2023-03-04T01:42:33;47.58;;;21.92;;
75928;SDS011;64606;44.062;2.986;2023-03-04T01:45:00;41.45;;;20.15;;
75928;SDS011;64606;44.062;2.986;2023-03-04T01:47:27;50.15;;;22.63;;
75928;SDS011;64606;44.062;2.986;2023-03-04T01:49:55;44.33;;;20.98;;
75928;SDS011;64606;44.062;2.986;2023-03-04T01:52:22;41.33;;;19.20;;
75928;SDS011;64606;44.062;2.986;2023-03-04T01:54:50;38.95;;;19.75;;
75928;SDS011;64606;44.062;2.986;2023-03-04T01:57:21;51.72;;;22.77;;
75928;SDS011;64606;44.062;2.986;2023-03-04T01:59:52;51.20;;;21.52;;
75928;SDS011;64606;44.062;2.986;2023-03-04T02:02:33;62.72;;;26.60;;
75928;SDS011;64606;44.062;2.986;2023-03-04T02:04:59;63.78;;;24.98;;
75928;SDS011;64606;44.062;2.986;2023-03-04T02:07:25;64.03;;;26.55;;
75928;SDS011;64606;44.062;2.986;2023-03-04T02:09:51;47.42;;;22.33;;
75928;SDS011;64606;44.062;2.986;2023-03-04T02:12:17;47.10;;;21.98;;
75928;SDS011;64606;44.062;2.986;2023-03-04T02:14:44;70.85;;;26.77;;
75928;SDS011;64606;44.062;2.986;2023-03-04T02:17:11;65.03;;;24.23;;
75928;SDS011;64606;44.062;2.986;2023-03-04T02:19:46;68.85;;;29.83;;
75928;SDS011;64606;44.062;2.986;2023-03-04T02:22:15;51.63;;;22.73;;
75928;SDS011;64606;44.062;2.986;2023-03-04T02:27:08;55.05;;;22.63;;
75928;SDS011;64606;44.062;2.986;2023-03-04T02:29:34;87.45;;;35.17;;
75928;SDS011;64606;44.062;2.986;2023-03-04T02:32:00;69.18;;;29.83;;
75928;SDS011;64606;44.062;2.986;2023-03-04T02:34:27;53.03;;;23.77;;
75928;SDS011;64606;44.062;2.986;2023-03-04T02:36:54;51.55;;;22.50;;
75928;SDS011;64606;44.062;2.986;2023-03-04T02:39:22;75.53;;;30.13;;
75928;SDS011;64606;44.062;2.986;2023-03-04T02:41:51;63.22;;;26.90;;
75928;SDS011;64606;44.062;2.986;2023-03-04T02:44:19;47.50;;;21.17;;
75928;SDS011;64606;44.062;2.986;2023-03-04T02:46:45;78.93;;;31.02;;
75928;SDS011;64606;44.062;2.986;2023-03-04T02:49:12;83.13;;;32.38;;
75928;SDS011;64606;44.062;2.986;2023-03-04T02:51:38;93.65;;;32.67;;
75928;SDS011;64606;44.062;2.986;2023-03-04T02:54:11;88.88;;;33.45;;
75928;SDS011;64606;44.062;2.986;2023-03-04T02:56:43;61.00;;;25.05;;
75928;SDS011;64606;44.062;2.986;2023-03-04T02:59:09;48.17;;;22.27;;
75928;SDS011;64606;44.062;2.986;2023-03-04T03:01:35;46.60;;;21.63;;
75928;SDS011;64606;44.062;2.986;2023-03-04T03:04:01;44.60;;;20.58;;
75928;SDS011;64606;44.062;2.986;2023-03-04T03:06:27;46.63;;;22.13;;
75928;SDS011;64606;44.062;2.986;2023-03-04T03:08:53;44.78;;;21.77;;
75928;SDS011;64606;44.062;2.986;2023-03-04T03:11:19;47.95;;;22.20;;
75928;SDS011;64606;44.062;2.986;2023-03-04T03:13:45;48.97;;;22.98;;
75928;SDS011;64606;44.062;2.986;2023-03-04T03:16:11;46.83;;;22.02;;
75928;SDS011;64606;44.062;2.986;2023-03-04T03:18:37;43.13;;;21.20;;
75928;SDS011;64606;44.062;2.986;2023-03-04T03:21:04;42.88;;;20.85;;
75928;SDS011;64606;44.062;2.986;2023-03-04T03:23:30;42.65;;;20.33;;
75928;SDS011;64606;44.062;2.986;2023-03-04T03:25:56;45.05;;;20.13;;
75928;SDS011;64606;44.062;2.986;2023-03-04T03:28:22;45.63;;;20.67;;
75928;SDS011;64606;44.062;2.986;2023-03-04T03:30:48;41.50;;;19.50;;
75928;SDS011;64606;44.062;2.986;2023-03-04T03:33:15;41.03;;;19.92;;
75928;SDS011;64606;44.062;2.986;2023-03-04T03:35:41;37.08;;;17.70;;
75928;SDS011;64606;44.062;2.986;2023-03-04T03:38:07;36.83;;;18.20;;
75928;SDS011;64606;44.062;2.986;2023-03-04T03:40:33;41.90;;;18.92;;
75928;SDS011;64606;44.062;2.986;2023-03-04T03:42:59;41.85;;;19.27;;
75928;SDS011;64606;44.062;2.986;2023-03-04T03:45:25;43.25;;;20.00;;
75928;SDS011;64606;44.062;2.986;2023-03-04T03:47:51;40.92;;;19.45;;
75928;SDS011;64606;44.062;2.986;2023-03-04T03:50:17;41.85;;;19.48;;
75928;SDS011;64606;44.062;2.986;2023-03-04T03:52:43;40.30;;;19.27;;
75928;SDS011;64606;44.062;2.986;2023-03-04T03:55:10;41.03;;;18.98;;
75928;SDS011;64606;44.062;2.986;2023-03-04T03:57:36;45.70;;;20.00;;
75928;SDS011;64606;44.062;2.986;2023-03-04T04:00:02;37.17;;;18.25;;
75928;SDS011;64606;44.062;2.986;2023-03-04T04:02:29;41.30;;;19.35;;
75928;SDS011;64606;44.062;2.986;2023-03-04T04:04:55;41.75;;;19.80;;
75928;SDS011;64606;44.062;2.986;2023-03-04T04:07:21;44.47;;;19.63;;
75928;SDS011;64606;44.062;2.986;2023-03-04T04:09:47;40.90;;;18.65;;
75928;SDS011;64606;44.062;2.986;2023-03-04T04:12:14;43.97;;;19.67;;
75928;SDS011;64606;44.062;2.986;2023-03-04T04:14:41;46.45;;;20.50;;
75928;SDS011;64606;44.062;2.986;2023-03-04T04:17:07;41.35;;;19.33;;
75928;SDS011;64606;44.062;2.986;2023-03-04T04:19:33;44.35;;;19.55;;
75928;SDS011;64606;44.062;2.986;2023-03-04T04:21:59;40.25;;;19.33;;
75928;SDS011;64606;44.062;2.986;2023-03-04T04:24:25;46.15;;;19.90;;
75928;SDS011;64606;44.062;2.986;2023-03-04T04:26:52;42.08;;;18.80;;
75928;SDS011;64606;44.062;2.986;2023-03-04T04:29:18;41.90;;;19.95;;
75928;SDS011;64606;44.062;2.986;2023-03-04T04:31:44;40.67;;;19.25;;
75928;SDS011;64606;44.062;2.986;2023-03-04T04:34:10;42.50;;;19.40;;
75928;SDS011;64606;44.062;2.986;2023-03-04T04:36:36;43.05;;;18.80;;
75928;SDS011;64606;44.062;2.986;2023-03-04T04:39:02;36.22;;;18.48;;
75928;SDS011;64606;44.062;2.986;2023-03-04T04:41:30;44.13;;;19.70;;
75928;SDS011;64606;44.062;2.986;2023-03-04T04:43:56;39.38;;;19.88;;
75928;SDS011;64606;44.062;2.986;2023-03-04T04:46:22;40.35;;;19.95;;
75928;SDS011;64606;44.062;2.986;2023-03-04T04:48:48;43.75;;;19.50;;
75928;SDS011;64606;44.062;2.986;2023-03-04T04:51:14;46.13;;;20.13;;
75928;SDS011;64606;44.062;2.986;2023-03-04T04:53:40;44.83;;;19.33;;
75928;SDS011;64606;44.062;2.986;2023-03-04T04:56:14;45.20;;;19.58;;
75928;SDS011;64606;44.062;2.986;2023-03-04T04:58:41;44.58;;;20.67;;
75928;SDS011;64606;44.062;2.986;2023-03-04T05:01:07;41.35;;;19.00;;
75928;SDS011;64606;44.062;2.986;2023-03-04T05:03:33;41.42;;;18.90;;
75928;SDS011;64606;44.062;2.986;2023-03-04T05:06:00;40.22;;;19.02;;
75928;SDS011;64606;44.062;2.986;2023-03-04T05:08:27;40.42;;;19.33;;
75928;SDS011;64606;44.062;2.986;2023-03-04T05:10:53;40.28;;;19.67;;
75928;SDS011;64606;44.062;2.986;2023-03-04T05:13:19;42.38;;;19.48;;
75928;SDS011;64606;44.062;2.986;2023-03-04T05:15:45;42.03;;;19.85;;
75928;SDS011;64606;44.062;2.986;2023-03-04T05:18:12;45.33;;;20.08;;
75928;SDS011;64606;44.062;2.986;2023-03-04T05:20:38;43.72;;;19.75;;
75928;SDS011;64606;44.062;2.986;2023-03-04T05:23:04;42.28;;;19.52;;
75928;SDS011;64606;44.062;2.986;2023-03-04T05:25:30;39.78;;;19.27;;
75928;SDS011;64606;44.062;2.986;2023-03-04T05:27:56;38.55;;;19.02;;
75928;SDS011;64606;44.062;2.986;2023-03-04T05:30:22;42.08;;;20.20;;
75928;SDS011;64606;44.062;2.986;2023-03-04T05:32:49;42.30;;;19.60;;
75928;SDS011;64606;44.062;2.986;2023-03-04T05:35:15;45.33;;;20.45;;
75928;SDS011;64606;44.062;2.986;2023-03-04T05:37:41;44.35;;;19.70;;
75928;SDS011;64606;44.062;2.986;2023-03-04T05:40:07;42.42;;;18.75;;
75928;SDS011;64606;44.062;2.986;2023-03-04T05:42:33;42.28;;;19.23;;
75928;SDS011;64606;44.062;2.986;2023-03-04T05:45:00;43.13;;;19.98;;
75928;SDS011;64606;44.062;2.986;2023-03-04T05:47:26;40.50;;;19.40;;
75928;SDS011;64606;44.062;2.986;2023-03-04T05:49:52;42.15;;;19.73;;
75928;SDS011;64606;44.062;2.986;2023-03-04T05:52:18;40.15;;;19.13;;
75928;SDS011;64606;44.062;2.986;2023-03-04T05:54:44;46.38;;;21.15;;
75928;SDS011;64606;44.062;2.986;2023-03-04T05:57:10;43.38;;;19.35;;
75928;SDS011;64606;44.062;2.986;2023-03-04T05:59:36;44.65;;;19.90;;
75928;SDS011;64606;44.062;2.986;2023-03-04T06:02:02;42.90;;;20.05;;
75928;SDS011;64606;44.062;2.986;2023-03-04T06:04:29;41.08;;;19.70;;
75928;SDS011;64606;44.062;2.986;2023-03-04T06:06:55;41.92;;;19.85;;
75928;SDS011;64606;44.062;2.986;2023-03-04T06:09:21;43.15;;;20.50;;
75928;SDS011;64606;44.062;2.986;2023-03-04T06:11:47;49.00;;;21.13;;
75928;SDS011;64606;44.062;2.986;2023-03-04T06:14:13;47.85;;;20.73;;
75928;SDS011;64606;44.062;2.986;2023-03-04T06:16:39;42.33;;;20.55;;
75928;SDS011;64606;44.062;2.986;2023-03-04T06:19:05;44.42;;;21.17;;
75928;SDS011;64606;44.062;2.986;2023-03-04T06:21:31;52.45;;;22.60;;
75928;SDS011;64606;44.062;2.986;2023-03-04T06:23:57;54.00;;;23.02;;
75928;SDS011;64606;44.062;2.986;2023-03-04T06:26:23;62.78;;;25.25;;
75928;SDS011;64606;44.062;2.986;2023-03-04T06:28:50;60.47;;;25.92;;
75928;SDS011;64606;44.062;2.986;2023-03-04T06:31:16;54.58;;;23.50;;
75928;SDS011;64606;44.062;2.986;2023-03-04T06:33:42;46.95;;;22.35;;
75928;SDS011;64606;44.062;2.986;2023-03-04T06:36:08;50.67;;;22.85;;
75928;SDS011;64606;44.062;2.986;2023-03-04T06:38:34;42.55;;;20.92;;
75928;SDS011;64606;44.062;2.986;2023-03-04T06:41:09;45.13;;;21.25;;
75928;SDS011;64606;44.062;2.986;2023-03-04T06:43:36;44.67;;;21.33;;
75928;SDS011;64606;44.062;2.986;2023-03-04T06:46:02;42.10;;;19.65;;
75928;SDS011;64606;44.062;2.986;2023-03-04T06:48:28;44.15;;;20.45;;
75928;SDS011;64606;44.062;2.986;2023-03-04T06:50:55;46.20;;;21.40;;
75928;SDS011;64606;44.062;2.986;2023-03-04T06:53:21;55.40;;;23.65;;
75928;SDS011;64606;44.062;2.986;2023-03-04T06:55:47;48.85;;;23.27;;
75928;SDS011;64606;44.062;2.986;2023-03-04T06:58:14;53.33;;;25.00;;
75928;SDS011;64606;44.062;2.986;2023-03-04T07:00:42;54.47;;;24.17;;
75928;SDS011;64606;44.062;2.986;2023-03-04T07:03:08;49.88;;;23.08;;
75928;SDS011;64606;44.062;2.986;2023-03-04T07:05:36;49.30;;;22.38;;
75928;SDS011;64606;44.062;2.986;2023-03-04T07:08:02;47.85;;;21.20;;
75928;SDS011;64606;44.062;2.986;2023-03-04T07:10:28;47.17;;;21.92;;
75928;SDS011;64606;44.062;2.986;2023-03-04T07:12:55;45.58;;;21.98;;
75928;SDS011;64606;44.062;2.986;2023-03-04T07:15:21;48.60;;;22.70;;
75928;SDS011;64606;44.062;2.986;2023-03-04T07:17:55;50.17;;;21.85;;
75928;SDS011;64606;44.062;2.986;2023-03-04T07:20:21;49.80;;;22.23;;
75928;SDS011;64606;44.062;2.986;2023-03-04T07:22:47;47.75;;;21.52;;
75928;SDS011;64606;44.062;2.986;2023-03-04T07:25:13;45.08;;;21.48;;
75928;SDS011;64606;44.062;2.986;2023-03-04T07:27:41;51.45;;;22.73;;
75928;SDS011;64606;44.062;2.986;2023-03-04T07:30:08;75.53;;;32.72;;
75928;SDS011;64606;44.062;2.986;2023-03-04T07:32:35;77.63;;;33.60;;
75928;SDS011;64606;44.062;2.986;2023-03-04T07:35:01;60.08;;;26.67;;
75928;SDS011;64606;44.062;2.986;2023-03-04T07:37:28;48.22;;;23.60;;
75928;SDS011;64606;44.062;2.986;2023-03-04T07:39:54;64.13;;;29.55;;
75928;SDS011;64606;44.062;2.986;2023-03-04T07:42:20;68.50;;;31.52;;
75928;SDS011;64606;44.062;2.986;2023-03-04T07:44:46;67.85;;;30.77;;
75928;SDS011;64606;44.062;2.986;2023-03-04T07:47:12;101.55;;;45.08;;
75928;SDS011;64606;44.062;2.986;2023-03-04T07:49:38;112.45;;;47.88;;
75928;SDS011;64606;44.062;2.986;2023-03-04T07:52:04;79.45;;;33.65;;
75928;SDS011;64606;44.062;2.986;2023-03-04T07:54:30;78.47;;;36.65;;
75928;SDS011;64606;44.062;2.986;2023-03-04T07:56:57;68.00;;;30.98;;
75928;SDS011;64606;44.062;2.986;2023-03-04T07:59:23;79.82;;;35.90;;
75928;SDS011;64606;44.062;2.986;2023-03-04T08:01:50;62.63;;;29.42;;
75928;SDS011;64606;44.062;2.986;2023-03-04T08:04:16;85.50;;;36.20;;
75928;SDS011;64606;44.062;2.986;2023-03-04T08:06:42;60.70;;;28.25;;
75928;SDS011;64606;44.062;2.986;2023-03-04T08:09:09;84.20;;;35.83;;
75928;SDS011;64606;44.062;2.986;2023-03-04T08:11:37;75.95;;;33.85;;
75928;SDS011;64606;44.062;2.986;2023-03-04T08:14:03;57.80;;;27.65;;
75928;SDS011;64606;44.062;2.986;2023-03-04T08:16:30;60.42;;;28.08;;
75928;SDS011;64606;44.062;2.986;2023-03-04T08:18:57;55.78;;;26.25;;
75928;SDS011;64606;44.062;2.986;2023-03-04T08:21:24;59.75;;;26.17;;
75928;SDS011;64606;44.062;2.986;2023-03-04T08:23:51;60.80;;;28.67;;
75928;SDS011;64606;44.062;2.986;2023-03-04T08:26:18;46.80;;;21.88;;
75928;SDS011;64606;44.062;2.986;2023-03-04T08:28:45;50.08;;;23.83;;
75928;SDS011;64606;44.062;2.986;2023-03-04T08:31:12;45.28;;;21.95;;
75928;SDS011;64606;44.062;2.986;2023-03-04T08:33:38;51.20;;;24.98;;
75928;SDS011;64606;44.062;2.986;2023-03-04T08:36:04;59.92;;;27.20;;
75928;SDS011;64606;44.062;2.986;2023-03-04T08:38:30;58.00;;;27.13;;
75928;SDS011;64606;44.062;2.986;2023-03-04T08:40:57;56.78;;;28.55;;
75928;SDS011;64606;44.062;2.986;2023-03-04T08:43:24;66.43;;;30.98;;
75928;SDS011;64606;44.062;2.986;2023-03-04T08:45:51;63.33;;;30.25;;
75928;SDS011;64606;44.062;2.986;2023-03-04T08:48:17;62.50;;;30.08;;
75928;SDS011;64606;44.062;2.986;2023-03-04T08:50:44;59.40;;;28.52;;
75928;SDS011;64606;44.062;2.986;2023-03-04T08:53:10;63.97;;;30.50;;
75928;SDS011;64606;44.062;2.986;2023-03-04T08:55:37;61.92;;;30.15;;
75928;SDS011;64606;44.062;2.986;2023-03-04T08:58:03;62.70;;;30.30;;
75928;SDS011;64606;44.062;2.986;2023-03-04T09:00:29;82.82;;;36.85;;
75928;SDS011;64606;44.062;2.986;2023-03-04T09:02:55;75.90;;;36.25;;
75928;SDS011;64606;44.062;2.986;2023-03-04T09:05:22;76.28;;;34.95;;
75928;SDS011;64606;44.062;2.986;2023-03-04T09:07:48;67.50;;;31.33;;
75928;SDS011;64606;44.062;2.986;2023-03-04T09:10:14;79.50;;;34.30;;
75928;SDS011;64606;44.062;2.986;2023-03-04T09:12:40;116.82;;;50.13;;
75928;SDS011;64606;44.062;2.986;2023-03-04T09:15:06;80.63;;;35.55;;
75928;SDS011;64606;44.062;2.986;2023-03-04T09:17:32;75.25;;;32.08;;
75928;SDS011;64606;44.062;2.986;2023-03-04T09:19:59;84.00;;;33.65;;
75928;SDS011;64606;44.062;2.986;2023-03-04T09:22:25;68.05;;;30.70;;
75928;SDS011;64606;44.062;2.986;2023-03-04T09:24:51;60.50;;;26.88;;
75928;SDS011;64606;44.062;2.986;2023-03-04T09:27:17;115.07;;;41.15;;
75928;SDS011;64606;44.062;2.986;2023-03-04T09:29:43;105.82;;;42.65;;
75928;SDS011;64606;44.062;2.986;2023-03-04T09:32:09;71.30;;;30.38;;
75928;SDS011;64606;44.062;2.986;2023-03-04T09:34:35;60.25;;;28.30;;
75928;SDS011;64606;44.062;2.986;2023-03-04T09:37:02;54.45;;;26.38;;
75928;SDS011;64606;44.062;2.986;2023-03-04T09:39:28;56.58;;;26.60;;
75928;SDS011;64606;44.062;2.986;2023-03-04T09:41:55;53.85;;;26.33;;
75928;SDS011;64606;44.062;2.986;2023-03-04T09:46:51;52.20;;;26.17;;
75928;SDS011;64606;44.062;2.986;2023-03-04T09:49:18;54.42;;;25.55;;
75928;SDS011;64606;44.062;2.986;2023-03-04T09:52:06;49.47;;;24.73;;
75928;SDS011;64606;44.062;2.986;2023-03-04T09:59:44;56.45;;;26.48;;
75928;SDS011;64606;44.062;2.986;2023-03-04T10:02:19;48.35;;;24.90;;
75928;SDS011;64606;44.062;2.986;2023-03-04T10:04:47;49.17;;;24.85;;
75928;SDS011;64606;44.062;2.986;2023-03-04T10:07:16;51.63;;;23.98;;
75928;SDS011;64606;44.062;2.986;2023-03-04T10:09:48;43.70;;;22.10;;
75928;SDS011;64606;44.062;2.986;2023-03-04T10:12:17;52.35;;;25.23;;
75928;SDS011;64606;44.062;2.986;2023-03-04T10:14:46;51.63;;;23.15;;
75928;SDS011;64606;44.062;2.986;2023-03-04T10:22:58;49.58;;;22.98;;
75928;SDS011;64606;44.062;2.986;2023-03-04T10:25:28;42.13;;;21.45;;
75928;SDS011;64606;44.062;2.986;2023-03-04T10:27:56;46.53;;;22.88;;
75928;SDS011;64606;44.062;2.986;2023-03-04T10:30:31;46.83;;;21.83;;
75928;SDS011;64606;44.062;2.986;2023-03-04T10:33:07;64.05;;;29.90;;
75928;SDS011;64606;44.062;2.986;2023-03-04T10:35:35;42.08;;;20.65;;
75928;SDS011;64606;44.062;2.986;2023-03-04T10:38:02;49.10;;;23.02;;
75928;SDS011;64606;44.062;2.986;2023-03-04T10:40:28;48.88;;;22.92;;
75928;SDS011;64606;44.062;2.986;2023-03-04T10:43:01;55.15;;;25.25;;
75928;SDS011;64606;44.062;2.986;2023-03-04T10:45:32;46.25;;;22.38;;
75928;SDS011;64606;44.062;2.986;2023-03-04T10:48:02;42.97;;;23.63;;
75928;SDS011;64606;44.062;2.986;2023-03-04T10:50:28;48.30;;;22.95;;
75928;SDS011;64606;44.062;2.986;2023-03-04T10:52:56;45.53;;;23.33;;
75928;SDS011;64606;44.062;2.986;2023-03-04T10:55:29;47.50;;;22.88;;
75928;SDS011;64606;44.062;2.986;2023-03-04T10:58:00;51.28;;;22.58;;
75928;SDS011;64606;44.062;2.986;2023-03-04T11:00:31;45.47;;;22.08;;
75928;SDS011;64606;44.062;2.986;2023-03-04T11:05:42;48.95;;;22.33;;
75928;SDS011;64606;44.062;2.986;2023-03-04T11:08:14;44.83;;;22.60;;
75928;SDS011;64606;44.062;2.986;2023-03-04T11:10:41;45.50;;;21.73;;
75928;SDS011;64606;44.062;2.986;2023-03-04T11:18:11;44.80;;;23.02;;
75928;SDS011;64606;44.062;2.986;2023-03-04T11:20:40;44.95;;;22.00;;
75928;SDS011;64606;44.062;2.986;2023-03-04T11:23:11;47.65;;;22.13;;
75928;SDS011;64606;44.062;2.986;2023-03-04T11:25:48;44.70;;;23.15;;
75928;SDS011;64606;44.062;2.986;2023-03-04T11:28:25;46.03;;;23.08;;
75928;SDS011;64606;44.062;2.986;2023-03-04T11:30:54;46.70;;;24.05;;
75928;SDS011;64606;44.062;2.986;2023-03-04T11:38:46;51.92;;;23.27;;
75928;SDS011;64606;44.062;2.986;2023-03-04T11:41:16;39.50;;;21.20;;
75928;SDS011;64606;44.062;2.986;2023-03-04T11:43:45;40.30;;;22.05;;
75928;SDS011;64606;44.062;2.986;2023-03-04T11:54:20;46.42;;;21.17;;
75928;SDS011;64606;44.062;2.986;2023-03-04T11:56:50;34.40;;;18.83;;
75928;SDS011;64606;44.062;2.986;2023-03-04T12:01:49;40.17;;;20.38;;
75928;SDS011;64606;44.062;2.986;2023-03-04T12:04:22;42.25;;;20.92;;
75928;SDS011;64606;44.062;2.986;2023-03-04T12:09:23;32.70;;;19.08;;
75928;SDS011;64606;44.062;2.986;2023-03-04T12:17:16;35.97;;;18.70;;
75928;SDS011;64606;44.062;2.986;2023-03-04T12:19:51;34.50;;;18.70;;
75928;SDS011;64606;44.062;2.986;2023-03-04T12:22:37;35.47;;;18.85;;
75928;SDS011;64606;44.062;2.986;2023-03-04T12:30:15;38.35;;;19.83;;
75928;SDS011;64606;44.062;2.986;2023-03-04T12:32:45;47.90;;;21.55;;
75928;SDS011;64606;44.062;2.986;2023-03-04T12:37:45;36.63;;;18.35;;
75928;SDS011;64606;44.062;2.986;2023-03-04T12:40:20;34.97;;;18.90;;
75928;SDS011;64606;44.062;2.986;2023-03-04T12:45:31;34.53;;;18.17;;
75928;SDS011;64606;44.062;2.986;2023-03-04T12:55:46;35.27;;;18.03;;
75928;SDS011;64606;44.062;2.986;2023-03-04T12:58:16;33.35;;;17.88;;
75928;SDS011;64606;44.062;2.986;2023-03-04T13:03:32;33.05;;;17.77;;
75928;SDS011;64606;44.062;2.986;2023-03-04T13:10:59;33.03;;;17.15;;
75928;SDS011;64606;44.062;2.986;2023-03-04T13:13:34;30.13;;;16.48;;
75928;SDS011;64606;44.062;2.986;2023-03-04T13:16:02;33.92;;;17.67;;
75928;SDS011;64606;44.062;2.986;2023-03-04T13:18:29;47.00;;;22.95;;
75928;SDS011;64606;44.062;2.986;2023-03-04T13:21:06;36.30;;;17.92;;
75928;SDS011;64606;44.062;2.986;2023-03-04T13:23:41;28.20;;;16.58;;
75928;SDS011;64606;44.062;2.986;2023-03-04T13:26:14;36.15;;;18.70;;
75928;SDS011;64606;44.062;2.986;2023-03-04T13:28:42;30.10;;;15.68;;
75928;SDS011;64606;44.062;2.986;2023-03-04T13:36:04;32.17;;;18.00;;
75928;SDS011;64606;44.062;2.986;2023-03-04T13:38:34;37.72;;;18.60;;
75928;SDS011;64606;44.062;2.986;2023-03-04T13:51:26;29.92;;;17.23;;
75928;SDS011;64606;44.062;2.986;2023-03-04T13:53:54;35.78;;;17.77;;
75928;SDS011;64606;44.062;2.986;2023-03-04T14:04:10;30.63;;;17.02;;
75928;SDS011;64606;44.062;2.986;2023-03-04T14:06:40;36.58;;;18.25;;
75928;SDS011;64606;44.062;2.986;2023-03-04T14:09:19;30.45;;;17.00;;
75928;SDS011;64606;44.062;2.986;2023-03-04T14:11:46;32.88;;;17.00;;
75928;SDS011;64606;44.062;2.986;2023-03-04T14:14:13;32.88;;;16.95;;
75928;SDS011;64606;44.062;2.986;2023-03-04T14:16:48;31.95;;;17.38;;
75928;SDS011;64606;44.062;2.986;2023-03-04T14:19:16;33.55;;;17.17;;
75928;SDS011;64606;44.062;2.986;2023-03-04T14:21:44;30.90;;;17.17;;
75928;SDS011;64606;44.062;2.986;2023-03-04T14:24:15;31.45;;;17.58;;
75928;SDS011;64606;44.062;2.986;2023-03-04T14:26:42;30.50;;;17.15;;
75928;SDS011;64606;44.062;2.986;2023-03-04T14:32:04;30.35;;;17.17;;
75928;SDS011;64606;44.062;2.986;2023-03-04T14:34:32;31.75;;;17.50;;
75928;SDS011;64606;44.062;2.986;2023-03-04T14:37:00;34.13;;;17.13;;
75928;SDS011;64606;44.062;2.986;2023-03-04T14:39:31;32.15;;;16.65;;
75928;SDS011;64606;44.062;2.986;2023-03-04T14:42:09;30.38;;;16.73;;
75928;SDS011;64606;44.062;2.986;2023-03-04T14:44:47;31.55;;;17.08;;
75928;SDS011;64606;44.062;2.986;2023-03-04T14:47:22;30.67;;;17.45;;
75928;SDS011;64606;44.062;2.986;2023-03-04T14:49:50;29.10;;;17.10;;
75928;SDS011;64606;44.062;2.986;2023-03-04T14:57:42;30.27;;;15.52;;
75928;SDS011;64606;44.062;2.986;2023-03-04T15:02:49;32.88;;;16.25;;
75928;SDS011;64606;44.062;2.986;2023-03-04T15:07:41;26.77;;;14.60;;
75928;SDS011;64606;44.062;2.986;2023-03-04T15:10:09;29.05;;;13.23;;
75928;SDS011;64606;44.062;2.986;2023-03-04T15:12:39;31.45;;;16.27;;
75928;SDS011;64606;44.062;2.986;2023-03-04T15:17:57;28.63;;;15.05;;
75928;SDS011;64606;44.062;2.986;2023-03-04T15:20:24;27.55;;;16.00;;
75928;SDS011;64606;44.062;2.986;2023-03-04T15:25:17;29.13;;;14.85;;
75928;SDS011;64606;44.062;2.986;2023-03-04T15:27:46;25.42;;;14.80;;
75928;SDS011;64606;44.062;2.986;2023-03-04T15:30:17;28.52;;;15.45;;
75928;SDS011;64606;44.062;2.986;2023-03-04T15:32:43;28.77;;;16.55;;
75928;SDS011;64606;44.062;2.986;2023-03-04T15:35:13;29.52;;;15.32;;
75928;SDS011;64606;44.062;2.986;2023-03-04T15:37:39;28.88;;;16.00;;
75928;SDS011;64606;44.062;2.986;2023-03-04T15:40:13;30.73;;;16.92;;
75928;SDS011;64606;44.062;2.986;2023-03-04T15:42:41;28.90;;;16.35;;
75928;SDS011;64606;44.062;2.986;2023-03-04T15:45:18;27.45;;;14.90;;
75928;SDS011;64606;44.062;2.986;2023-03-04T15:47:45;31.60;;;16.50;;
75928;SDS011;64606;44.062;2.986;2023-03-04T15:50:11;32.03;;;17.73;;
75928;SDS011;64606;44.062;2.986;2023-03-04T15:52:37;29.15;;;15.77;;
75928;SDS011;64606;44.062;2.986;2023-03-04T15:55:04;25.08;;;13.75;;
75928;SDS011;64606;44.062;2.986;2023-03-04T15:57:31;27.65;;;14.45;;
75928;SDS011;64606;44.062;2.986;2023-03-04T15:59:57;27.25;;;14.75;;
75928;SDS011;64606;44.062;2.986;2023-03-04T16:02:24;26.50;;;14.20;;
75928;SDS011;64606;44.062;2.986;2023-03-04T16:04:54;26.30;;;14.52;;
75928;SDS011;64606;44.062;2.986;2023-03-04T16:07:23;28.55;;;13.75;;
75928;SDS011;64606;44.062;2.986;2023-03-04T16:09:54;24.58;;;13.77;;
75928;SDS011;64606;44.062;2.986;2023-03-04T16:12:21;27.20;;;13.63;;
75928;SDS011;64606;44.062;2.986;2023-03-04T16:14:48;26.20;;;13.82;;
75928;SDS011;64606;44.062;2.986;2023-03-04T16:17:15;24.98;;;14.05;;